Aérodrome :







RETROUVEZ-NOUS SUR...

 
LOGIN :

S'inscrire | Disclaimer

   EN    FR    IT 

 









Légende :    VFR   VFR Marginal   IFR   IFR Intensif   IFR Très Intensif
Visi : 
Plafond : 
>= 8 km
>= 3000ft
5 à 8 km
1000 à 3000 ft
1500m à 5 km
500 à 1000 ft
800 à 1500m
200 à 500 ft
< 800m
< 200 ft
Symboles :   Orages  Brouillard  Fortes neiges  Fortes précipitations  Vent > 20 kt






- Altitude de l'aérodrome : 121 ft
- Code IATA : YBX


CYBX - Lourdes De Blanc Sablon

DERNIER METAR :
  • 171700Z 28015G22KT 15SM FEW031 M02/M11 A3003 RMK CU1 SLP174

METARs EXPIRÉS :
  • 171600Z 28017G26KT 15SM FEW031 M03/M10 A3003 RMK CU1 SLP172
  • 171500Z 27015G21KT 15SM FEW031 M04/M11 A3001 RMK CU2 SLP166

TAF TAF CYBX
Valide du 17 à 14h jusqu'au 18 à 02h UTC


171338Z 1714/1802 28017G27KT P6SM FEW030
BECMG 1716/1718 28015G25KT RMK NXT FCST BY 172000Z



MET'MAP, la Météo Aéronautique d'un coup d'oeil ! - Copyright ORBIFLY Décembre 2007 - Disclaimer

ORBIFLY MET'MAP TEAM :

Programmation & Développement : Alexandra Zaïnal
Conception & Développement : Baudouin d'Aumeries
Co-Programmation & Développement : Marc-Olivier Méhu
Soutien technique & logistique : Manuel Goepfert

Contact : metmap@orbifly.com




SOURCES & CREDITS :

   NOAA